Time;durP1;ratioP1;P1;durP2;ratioP2;P2;SDS_P1;SDS_P2;PMS_P1;PMS_P2;Temp;Humidity;BMP_temperature;BMP_pressure;BME280_temperature;BME280_humidity;BME280_pressure;Samples;Min_cycle;Max_cycle;Signal;HPM_P1;HPM_P2
2022/12/10 00:01:21;;;;;;;;;;;11.30;90.60;;;;;;5026713;28;20296;-67
2022/12/10 00:03:46;;;;;;;;;;;11.20;90.60;;;;;;5024152;28;19933;-68
2022/12/10 00:06:13;;;;;;;;;;;11.10;90.60;;;;;;5026888;28;19925;-68
2022/12/10 00:08:39;;;;;;;;;;;11.30;90.60;;;;;;5030931;28;19925;-67
2022/12/10 00:11:05;;;;;;;;;;;11.20;90.50;;;;;;5033766;28;19925;-67
2022/12/10 00:13:31;;;;;;;;;;;11.20;90.50;;;;;;5020013;28;19925;-68
2022/12/10 00:15:59;;;;;;;;;;;11.30;90.50;;;;;;5027345;28;19936;-68
2022/12/10 00:18:24;;;;;;;;;;;11.20;90.50;;;;;;5061079;28;19931;-67
2022/12/10 00:20:50;;;;;;;;;;;11.30;90.50;;;;;;5048839;28;19925;-67
2022/12/10 00:23:15;;;;;;;;;;;11.30;90.50;;;;;;5026826;28;19983;-68
2022/12/10 00:25:41;;;;;;;;;;;11.20;90.40;;;;;;5030820;28;19925;-68
2022/12/10 00:28:07;;;;;;;;;;;11.40;90.50;;;;;;5023437;28;19925;-68
2022/12/10 00:30:33;;;;;;;;;;;11.20;90.00;;;;;;5025763;28;19975;-66
2022/12/10 00:32:58;;;;;;;;;;;11.40;90.50;;;;;;5025260;28;19925;-66
2022/12/10 00:35:24;;;;;;;;;;;11.30;90.50;;;;;;5020639;28;20423;-66
2022/12/10 00:37:50;;;;;;;;;;;11.50;90.50;;;;;;5016781;28;19990;-66
2022/12/10 00:40:16;;;;;;;;;;;11.40;90.00;;;;;;5031512;28;19929;-66
2022/12/10 00:42:42;;;;;;;;;;;;;;;;;;5028102;28;20482;-66
2022/12/10 00:45:07;;;;;;;;;;;11.20;90.30;;;;;;5030200;28;19931;-65
2022/12/10 00:47:33;;;;;;;;;;;11.30;90.40;;;;;;5028702;28;19921;-66
2022/12/10 00:49:59;;;;;;;;;;;11.10;90.30;;;;;;5022987;28;20041;-66
2022/12/10 00:52:25;;;;;;;;;;;;;;;;;;5032860;28;19925;-67
2022/12/10 00:54:50;;;;;;;;;;;11.20;90.40;;;;;;5026055;28;20383;-66
2022/12/10 00:57:16;;;;;;;;;;;11.10;90.40;;;;;;5047078;28;19929;-65
2022/12/10 00:59:42;;;;;;;;;;;;;;;;;;5020959;28;19949;-66
2022/12/10 01:02:08;;;;;;;;;;;;;;;;;;5028190;28;19933;-65
2022/12/10 01:04:34;;;;;;;;;;;;;;;;;;5023213;28;19925;-66
2022/12/10 01:06:59;;;;;;;;;;;11.10;90.30;;;;;;5031999;28;19956;-66
2022/12/10 01:09:26;;;;;;;;;;;11.10;90.20;;;;;;5062070;28;19972;-65
2022/12/10 01:11:52;;;;;;;;;;;11.10;90.20;;;;;;5010029;28;19941;-66
2022/12/10 01:14:21;;;;;;;;;;;11.20;90.20;;;;;;5021429;28;19929;-66
2022/12/10 01:16:47;;;;;;;;;;;11.20;90.20;;;;;;4995212;28;19926;-68
2022/12/10 01:19:13;;;;;;;;;;;11.20;90.20;;;;;;5015937;28;19925;-65
2022/12/10 01:21:39;;;;;;;;;;;11.00;90.20;;;;;;5027397;28;19978;-65
2022/12/10 01:24:05;;;;;;;;;;;;;;;;;;5024024;28;19965;-66
2022/12/10 01:26:31;;;;;;;;;;;11.10;90.10;;;;;;5017182;28;20330;-65
2022/12/10 01:28:57;;;;;;;;;;;11.20;90.10;;;;;;5057726;28;20321;-68
2022/12/10 01:31:23;;;;;;;;;;;11.20;90.20;;;;;;5010906;28;20020;-68
2022/12/10 01:33:49;;;;;;;;;;;11.30;90.20;;;;;;5031020;28;20287;-68
2022/12/10 01:36:22;;;;;;;;;;;11.30;90.20;;;;;;5019695;28;19925;-67
2022/12/10 01:38:47;;;;;;;;;;;11.20;90.10;;;;;;5020582;28;19926;-67
2022/12/10 01:41:14;;;;;;;;;;;11.10;90.00;;;;;;5012679;28;19931;-67
2022/12/10 01:43:40;;;;;;;;;;;;;;;;;;4996832;28;19972;-68
2022/12/10 01:46:06;;;;;;;;;;;11.10;89.50;;;;;;5016067;28;20007;-68
2022/12/10 01:48:31;;;;;;;;;;;11.20;90.10;;;;;;5065645;28;19925;-68
2022/12/10 01:50:57;;;;;;;;;;;11.10;90.10;;;;;;5015855;28;20025;-68
2022/12/10 01:53:22;;;;;;;;;;;11.30;90.10;;;;;;5048889;28;20015;-67
2022/12/10 01:55:49;;;;;;;;;;;11.20;90.10;;;;;;5047385;28;19925;-68
2022/12/10 01:58:16;;;;;;;;;;;11.10;90.00;;;;;;5014033;28;20032;-68
2022/12/10 02:00:44;;;;;;;;;;;11.10;89.60;;;;;;4998930;28;19932;-68
2022/12/10 02:03:13;;;;;;;;;;;11.00;90.00;;;;;;5012446;28;20341;-67
2022/12/10 02:05:40;;;;;;;;;;;11.20;90.00;;;;;;5042434;28;19932;-67
2022/12/10 02:08:12;;;;;;;;;;;11.00;90.00;;;;;;5051194;28;20401;-68
2022/12/10 02:10:38;;;;;;;;;;;10.90;89.90;;;;;;5030237;28;20290;-68
2022/12/10 02:13:09;;;;;;;;;;;11.20;90.00;;;;;;5029314;28;19921;-68
2022/12/10 02:15:55;;;;;;;;;;;11.00;89.90;;;;;;5031311;28;19932;-67
2022/12/10 02:18:21;;;;;;;;;;;;;;;;;;5055605;28;19925;-67
2022/12/10 02:20:48;;;;;;;;;;;11.00;89.80;;;;;;5058737;28;19926;-68
2022/12/10 02:23:28;;;;;;;;;;;11.30;90.00;;;;;;5064369;28;19925;-68
2022/12/10 02:26:23;;;;;;;;;;;11.10;89.80;;;;;;5041475;28;19948;-68
2022/12/10 02:28:49;;;;;;;;;;;;;;;;;;5051117;28;19925;-67
2022/12/10 02:31:15;;;;;;;;;;;11.00;89.70;;;;;;5016998;28;20311;-67
2022/12/10 02:33:43;;;;;;;;;;;11.20;89.80;;;;;;5033531;28;20477;-67
2022/12/10 02:36:08;;;;;;;;;;;11.00;89.60;;;;;;5030577;28;19930;-68
2022/12/10 02:38:35;;;;;;;;;;;10.90;89.60;;;;;;5034070;28;19948;-67
2022/12/10 02:41:02;;;;;;;;;;;11.10;89.50;;;;;;5033420;28;20079;-68
2022/12/10 02:43:27;;;;;;;;;;;11.20;89.80;;;;;;5033871;28;19933;-68
2022/12/10 02:45:54;;;;;;;;;;;11.10;89.70;;;;;;5033760;28;20316;-68
2022/12/10 02:48:19;;;;;;;;;;;11.10;89.80;;;;;;5016780;28;20040;-68
2022/12/10 02:50:45;;;;;;;;;;;11.10;89.80;;;;;;5033859;28;19933;-67
2022/12/10 02:53:11;;;;;;;;;;;;;;;;;;5017357;28;19933;-68
2022/12/10 02:55:44;;;;;;;;;;;11.00;89.70;;;;;;5017366;28;20315;-67
2022/12/10 02:58:22;;;;;;;;;;;10.80;89.60;;;;;;5033180;28;19964;-68
2022/12/10 03:00:55;;;;;;;;;;;11.10;89.70;;;;;;5017093;28;19924;-67
2022/12/10 03:03:21;;;;;;;;;;;;;;;;;;5033366;28;19977;-68
2022/12/10 03:06:05;;;;;;;;;;;10.90;89.70;;;;;;5032993;28;19925;-68
2022/12/10 03:08:33;;;;;;;;;;;11.10;89.80;;;;;;5034606;28;19925;-66
2022/12/10 03:11:05;;;;;;;;;;;11.00;89.70;;;;;;5028844;28;19923;-65
2022/12/10 03:13:38;;;;;;;;;;;10.90;89.70;;;;;;5038275;28;19932;-66
2022/12/10 03:16:04;;;;;;;;;;;10.80;89.70;;;;;;5028180;28;20298;-66
2022/12/10 03:18:30;;;;;;;;;;;10.90;89.70;;;;;;5062542;28;20011;-65
2022/12/10 03:20:56;;;;;;;;;;;10.90;88.80;;;;;;5032005;28;20518;-67
2022/12/10 03:23:21;;;;;;;;;;;10.90;89.60;;;;;;5026280;28;19952;-66
2022/12/10 03:25:47;;;;;;;;;;;11.30;89.80;;;;;;5030118;28;19925;-65
2022/12/10 03:28:13;;;;;;;;;;;11.10;89.70;;;;;;5031072;28;20299;-65
2022/12/10 03:30:38;;;;;;;;;;;11.00;89.70;;;;;;5023203;28;20445;-65
2022/12/10 03:33:04;;;;;;;;;;;10.90;89.70;;;;;;5034678;28;19925;-66
2022/12/10 03:35:30;;;;;;;;;;;;;;;;;;5022927;28;19925;-66
2022/12/10 03:37:56;;;;;;;;;;;10.80;89.50;;;;;;5016862;28;20011;-65
2022/12/10 03:40:22;;;;;;;;;;;11.10;89.70;;;;;;5035079;28;19934;-65
2022/12/10 03:42:48;;;;;;;;;;;10.90;89.60;;;;;;5017817;28;19925;-65
2022/12/10 03:45:13;;;;;;;;;;;10.90;89.60;;;;;;5034205;28;20299;-66
2022/12/10 03:47:39;;;;;;;;;;;10.90;89.60;;;;;;5035635;28;19925;-66
2022/12/10 03:50:05;;;;;;;;;;;10.80;89.60;;;;;;5035175;28;19929;-65
2022/12/10 03:52:31;;;;;;;;;;;11.10;89.70;;;;;;5017935;28;19993;-65
2022/12/10 03:54:56;;;;;;;;;;;11.10;89.70;;;;;;5017899;28;20011;-65
2022/12/10 03:57:22;;;;;;;;;;;10.60;89.60;;;;;;5035248;28;20376;-65
2022/12/10 03:59:48;;;;;;;;;;;;;;;;;;5033267;28;20438;-67
2022/12/10 04:02:14;;;;;;;;;;;11.10;89.70;;;;;;5025123;28;19925;-65
2022/12/10 04:04:39;;;;;;;;;;;10.80;89.50;;;;;;5031978;28;19929;-66
2022/12/10 04:07:05;;;;;;;;;;;11.10;89.70;;;;;;5031242;28;20015;-66
2022/12/10 04:09:30;;;;;;;;;;;10.90;89.50;;;;;;5022819;28;19925;-65
2022/12/10 04:11:57;;;;;;;;;;;11.00;89.50;;;;;;5030412;28;19955;-65
2022/12/10 04:17:06;;;;;;;;;;;10.90;88.90;;;;;;5027478;28;19936;-66
2022/12/10 04:19:32;;;;;;;;;;;10.80;89.40;;;;;;5030571;28;19929;-66
2022/12/10 04:27:26;;;;;;;;;;;11.10;89.50;;;;;;5026476;28;19964;-66
2022/12/10 04:29:52;;;;;;;;;;;10.80;89.00;;;;;;5023767;28;19964;-65
2022/12/10 04:32:17;;;;;;;;;;;10.70;89.30;;;;;;5012058;28;20023;-65
2022/12/10 04:34:43;;;;;;;;;;;;;;;;;;5029446;28;19925;-65
2022/12/10 04:37:10;;;;;;;;;;;11.00;89.30;;;;;;5027374;28;19925;-65
2022/12/10 04:39:36;;;;;;;;;;;;;;;;;;5029357;28;19933;-64
2022/12/10 04:42:02;;;;;;;;;;;10.90;89.30;;;;;;5061504;28;20026;-64
2022/12/10 04:44:28;;;;;;;;;;;;;;;;;;5012555;28;19960;-65
2022/12/10 04:46:54;;;;;;;;;;;10.70;89.10;;;;;;5059248;28;19929;-64
2022/12/10 04:49:19;;;;;;;;;;;10.90;89.20;;;;;;5025782;28;19926;-64
2022/12/10 04:51:45;;;;;;;;;;;10.90;89.20;;;;;;5029269;28;20049;-65
2022/12/10 04:54:11;;;;;;;;;;;;;;;;;;5027688;28;19980;-69
2022/12/10 04:56:37;;;;;;;;;;;10.90;89.10;;;;;;5018239;28;20031;-65
2022/12/10 04:59:03;;;;;;;;;;;10.70;89.00;;;;;;5030276;28;19929;-64
2022/12/10 05:01:29;;;;;;;;;;;;;;;;;;5030651;28;19947;-64
2022/12/10 05:03:56;;;;;;;;;;;10.80;89.00;;;;;;5027171;28;19925;-64
2022/12/10 05:06:22;;;;;;;;;;;;;;;;;;5043548;28;19926;-64
2022/12/10 05:08:48;;;;;;;;;;;;;;;;;;5030141;28;20295;-65
2022/12/10 05:11:15;;;;;;;;;;;10.80;89.10;;;;;;5027879;28;19925;-64
2022/12/10 05:13:41;;;;;;;;;;;10.80;88.40;;;;;;5027555;28;19925;-66
2022/12/10 05:16:07;;;;;;;;;;;;;;;;;;5026340;28;20280;-64
2022/12/10 05:18:32;;;;;;;;;;;10.90;89.20;;;;;;5028988;28;19952;-65
2022/12/10 05:21:02;;;;;;;;;;;10.90;89.10;;;;;;5028860;28;20437;-65
2022/12/10 05:23:27;;;;;;;;;;;11.10;89.20;;;;;;5011711;28;19957;-64
2022/12/10 05:26:02;;;;;;;;;;;10.70;89.00;;;;;;5025401;28;19961;-65
2022/12/10 05:28:28;;;;;;;;;;;;;;;;;;5030424;28;20264;-64
2022/12/10 05:30:53;;;;;;;;;;;10.70;89.10;;;;;;5022871;28;19931;-64
2022/12/10 05:33:19;;;;;;;;;;;10.90;89.20;;;;;;5048992;28;19925;-65
2022/12/10 05:35:55;;;;;;;;;;;10.70;89.10;;;;;;5012464;28;19977;-64
2022/12/10 05:38:21;;;;;;;;;;;;;;;;;;5025178;28;19925;-66
2022/12/10 05:40:46;;;;;;;;;;;10.80;89.30;;;;;;5032799;28;19932;-64
2022/12/10 05:43:12;;;;;;;;;;;11.00;89.40;;;;;;5038296;28;20259;-64
2022/12/10 05:45:38;;;;;;;;;;;10.60;89.10;;;;;;5036376;28;19948;-65
2022/12/10 05:48:03;;;;;;;;;;;10.80;89.30;;;;;;5036366;28;19979;-64
2022/12/10 05:50:30;;;;;;;;;;;10.80;89.20;;;;;;5034275;28;19925;-64
2022/12/10 05:52:56;;;;;;;;;;;10.70;89.20;;;;;;5036332;28;19974;-65
2022/12/10 05:55:21;;;;;;;;;;;10.80;89.20;;;;;;5023426;28;20012;-65
2022/12/10 05:57:47;;;;;;;;;;;10.90;89.30;;;;;;5016717;28;20336;-64
2022/12/10 06:00:13;;;;;;;;;;;10.80;89.20;;;;;;5016361;28;19925;-64
2022/12/10 06:02:38;;;;;;;;;;;10.90;89.20;;;;;;5002683;28;19926;-64
2022/12/10 06:05:04;;;;;;;;;;;;;;;;;;5012646;28;19940;-64
2022/12/10 06:07:30;;;;;;;;;;;10.90;89.10;;;;;;5064246;28;19932;-64
2022/12/10 06:09:56;;;;;;;;;;;10.80;89.10;;;;;;5025918;28;19933;-67
2022/12/10 06:12:21;;;;;;;;;;;10.80;89.20;;;;;;5022145;28;20400;-67
2022/12/10 06:14:47;;;;;;;;;;;10.80;89.20;;;;;;5029594;28;20383;-63
2022/12/10 06:17:13;;;;;;;;;;;;;;;;;;5016035;28;19975;-65
2022/12/10 06:19:39;;;;;;;;;;;10.70;89.20;;;;;;5036109;28;20322;-65
2022/12/10 06:22:04;;;;;;;;;;;10.90;89.20;;;;;;5035644;28;19925;-65
2022/12/10 06:24:30;;;;;;;;;;;;;;;;;;5034911;28;19933;-64
2022/12/10 06:26:56;;;;;;;;;;;10.90;88.90;;;;;;5035594;28;19975;-65
2022/12/10 06:29:22;;;;;;;;;;;10.80;89.30;;;;;;5021534;28;20000;-66
2022/12/10 06:31:47;;;;;;;;;;;10.60;89.10;;;;;;5021674;28;19925;-66
2022/12/10 06:34:13;;;;;;;;;;;;;;;;;;5035020;28;20379;-65
2022/12/10 06:36:39;;;;;;;;;;;10.80;89.30;;;;;;5035087;28;19925;-66
2022/12/10 06:39:05;;;;;;;;;;;11.00;89.40;;;;;;5035289;28;19971;-65
2022/12/10 06:41:30;;;;;;;;;;;10.50;89.20;;;;;;5036056;28;19926;-66
2022/12/10 06:43:59;;;;;;;;;;;10.60;89.20;;;;;;5036553;28;20016;-66
2022/12/10 06:46:25;;;;;;;;;;;10.60;88.60;;;;;;5029406;28;19932;-65
2022/12/10 06:48:51;;;;;;;;;;;10.80;89.40;;;;;;5052188;28;19932;-65
2022/12/10 06:51:17;;;;;;;;;;;10.80;89.40;;;;;;5036406;28;20314;-66
2022/12/10 06:53:43;;;;;;;;;;;10.80;89.30;;;;;;5034983;28;19937;-67
2022/12/10 06:56:11;;;;;;;;;;;10.70;89.20;;;;;;5034737;28;19929;-67
2022/12/10 06:58:37;;;;;;;;;;;10.80;89.00;;;;;;5017819;28;19955;-66
2022/12/10 07:01:07;;;;;;;;;;;11.00;89.20;;;;;;5033449;28;19925;-65
2022/12/10 07:03:32;;;;;;;;;;;10.70;89.00;;;;;;5017238;28;19925;-65
2022/12/10 07:06:01;;;;;;;;;;;10.60;89.00;;;;;;5017098;28;19948;-68
2022/12/10 07:08:27;;;;;;;;;;;;;;;;;;5032073;28;19925;-65
2022/12/10 07:10:53;;;;;;;;;;;10.80;89.30;;;;;;5033516;28;20413;-69
2022/12/10 07:13:18;;;;;;;;;;;10.80;89.20;;;;;;5033519;28;19926;-68
2022/12/10 07:15:44;;;;;;;;;;;;;;;;;;5033384;28;20493;-66
2022/12/10 07:18:10;;;;;;;;;;;;;;;;;;5031900;28;20019;-68
2022/12/10 07:20:36;;;;;;;;;;;10.70;88.80;;;;;;5030711;28;19975;-66
2022/12/10 07:23:02;;;;;;;;;;;10.70;89.10;;;;;;5030007;28;19964;-65
2022/12/10 07:25:27;;;;;;;;;;;10.70;89.10;;;;;;5032156;28;19933;-65
2022/12/10 07:27:53;;;;;;;;;;;10.60;88.80;;;;;;5030293;28;19922;-64
2022/12/10 07:30:19;;;;;;;;;;;;;;;;;;5033357;28;20048;-65
2022/12/10 07:32:45;;;;;;;;;;;;;;;;;;5031706;28;19963;-67
2022/12/10 07:35:11;;;;;;;;;;;10.60;88.90;;;;;;5031821;28;19929;-66
2022/12/10 07:37:37;;;;;;;;;;;;;;;;;;5030375;28;19951;-68
2022/12/10 07:40:03;;;;;;;;;;;10.70;88.90;;;;;;5031392;28;19925;-65
2022/12/10 07:42:29;;;;;;;;;;;;;;;;;;5033587;28;19948;-65
2022/12/10 07:44:55;;;;;;;;;;;;;;;;;;5032884;28;20313;-66
2022/12/10 07:47:21;;;;;;;;;;;;;;;;;;5033137;28;19943;-67
2022/12/10 07:49:47;;;;;;;;;;;;;;;;;;5031528;28;19940;-67
2022/12/10 07:52:12;;;;;;;;;;;10.60;88.40;;;;;;5029010;28;20403;-67
2022/12/10 07:54:38;;;;;;;;;;;10.80;89.00;;;;;;5063758;28;20035;-65
2022/12/10 07:57:04;;;;;;;;;;;;;;;;;;5030088;28;19987;-65
2022/12/10 07:59:30;;;;;;;;;;;10.70;89.00;;;;;;5032372;28;19925;-66
2022/12/10 08:01:56;;;;;;;;;;;10.80;89.20;;;;;;5031755;28;19933;-66
2022/12/10 08:04:22;;;;;;;;;;;10.60;89.40;;;;;;5032326;28;19932;-65
2022/12/10 08:06:47;;;;;;;;;;;10.90;89.30;;;;;;5015781;28;19925;-66
2022/12/10 08:09:13;;;;;;;;;;;10.50;89.10;;;;;;5031193;28;19932;-66
2022/12/10 08:11:39;;;;;;;;;;;10.90;89.30;;;;;;5032673;28;20410;-66
2022/12/10 08:14:04;;;;;;;;;;;;;;;;;;5031855;28;19929;-66
2022/12/10 08:16:33;;;;;;;;;;;10.70;88.60;;;;;;5032984;28;19925;-66
2022/12/10 08:18:59;;;;;;;;;;;10.80;89.30;;;;;;5015786;28;19948;-66
2022/12/10 08:21:25;;;;;;;;;;;;;;;;;;5013660;28;20448;-66
2022/12/10 08:23:50;;;;;;;;;;;10.90;89.40;;;;;;5032943;28;19925;-66
2022/12/10 08:26:17;;;;;;;;;;;10.90;89.40;;;;;;5031575;28;19929;-67
2022/12/10 08:28:43;;;;;;;;;;;10.60;89.30;;;;;;5014802;28;19932;-66
2022/12/10 08:31:09;;;;;;;;;;;10.70;89.30;;;;;;5029635;28;19925;-66
2022/12/10 08:33:36;;;;;;;;;;;;;;;;;;5015127;28;20014;-66
2022/12/10 08:36:01;;;;;;;;;;;10.70;89.30;;;;;;5030368;28;19932;-68
2022/12/10 08:38:27;;;;;;;;;;;10.70;89.30;;;;;;5013434;28;20027;-66
2022/12/10 08:40:53;;;;;;;;;;;10.60;89.30;;;;;;4998518;28;20012;-66
2022/12/10 08:43:19;;;;;;;;;;;10.80;89.40;;;;;;5031212;28;19947;-67
2022/12/10 08:45:45;;;;;;;;;;;;;;;;;;5031042;28;19925;-67
2022/12/10 08:48:10;;;;;;;;;;;10.60;89.50;;;;;;5014270;28;20426;-66
2022/12/10 08:50:36;;;;;;;;;;;;;;;;;;5014743;28;20048;-68
2022/12/10 08:53:02;;;;;;;;;;;10.80;89.40;;;;;;5031114;28;19929;-66
2022/12/10 08:55:28;;;;;;;;;;;10.80;89.40;;;;;;5031240;28;19929;-66
2022/12/10 08:57:54;;;;;;;;;;;;;;;;;;5029076;28;20413;-66
2022/12/10 09:00:19;;;;;;;;;;;10.90;89.50;;;;;;5032187;28;19929;-67
2022/12/10 09:02:45;;;;;;;;;;;;;;;;;;5029110;28;20051;-65
2022/12/10 09:05:12;;;;;;;;;;;10.80;89.10;;;;;;5031052;28;19931;-65
2022/12/10 09:07:38;;;;;;;;;;;;;;;;;;5028574;28;20333;-66
2022/12/10 09:10:03;;;;;;;;;;;11.20;89.50;;;;;;5030947;28;19925;-66
2022/12/10 09:12:29;;;;;;;;;;;;;;;;;;5026919;28;19964;-65
2022/12/10 09:14:55;;;;;;;;;;;10.90;89.40;;;;;;5062588;28;19929;-67
2022/12/10 09:17:21;;;;;;;;;;;10.80;89.30;;;;;;5044900;28;19948;-65
2022/12/10 09:19:47;;;;;;;;;;;11.00;89.40;;;;;;5028380;28;19925;-66
2022/12/10 09:22:13;;;;;;;;;;;10.90;89.50;;;;;;5028147;28;19925;-68
2022/12/10 09:24:39;;;;;;;;;;;;;;;;;;5030153;28;19929;-68
2022/12/10 09:27:04;;;;;;;;;;;11.10;89.50;;;;;;5029468;28;19925;-65
2022/12/10 09:29:30;;;;;;;;;;;;;;;;;;5028951;28;19948;-66
2022/12/10 09:31:56;;;;;;;;;;;11.20;89.40;;;;;;5061315;28;20145;-64
2022/12/10 09:34:22;;;;;;;;;;;11.00;89.30;;;;;;5031387;28;20012;-64
2022/12/10 09:36:47;;;;;;;;;;;11.00;89.30;;;;;;5021940;28;19933;-66
2022/12/10 09:39:13;;;;;;;;;;;;;;;;;;5046070;28;19979;-68
2022/12/10 09:41:42;;;;;;;;;;;11.00;89.30;;;;;;5059916;28;19926;-66
2022/12/10 09:44:13;;;;;;;;;;;11.10;89.40;;;;;;5028490;28;19965;-65
2022/12/10 09:46:48;;;;;;;;;;;11.00;89.20;;;;;;5029731;28;20386;-66
2022/12/10 09:49:32;;;;;;;;;;;11.40;89.60;;;;;;5032622;28;20294;-66
2022/12/10 09:51:59;;;;;;;;;;;11.00;89.30;;;;;;5025943;28;19926;-66
2022/12/10 09:54:25;;;;;;;;;;;;;;;;;;5030516;28;19925;-67
2022/12/10 09:56:51;;;;;;;;;;;11.30;89.60;;;;;;5060948;28;20343;-66
2022/12/10 09:59:21;;;;;;;;;;;10.90;89.30;;;;;;5030982;28;19925;-65
2022/12/10 10:01:47;;;;;;;;;;;;;;;;;;5028584;28;20290;-68
2022/12/10 10:04:13;;;;;;;;;;;11.00;89.40;;;;;;5032377;28;20019;-67
2022/12/10 10:06:38;;;;;;;;;;;11.10;89.40;;;;;;5029390;28;19932;-65
2022/12/10 10:09:04;;;;;;;;;;;11.20;89.40;;;;;;5021056;28;19934;-65
2022/12/10 10:11:31;;;;;;;;;;;11.20;89.30;;;;;;5024356;28;19925;-66
2022/12/10 10:14:16;;;;;;;;;;;11.40;89.40;;;;;;5028694;28;19979;-67
2022/12/10 10:16:42;;;;;;;;;;;;;;;;;;5026923;28;19925;-67
2022/12/10 10:19:15;;;;;;;;;;;11.50;89.40;;;;;;5030950;28;19925;-67
2022/12/10 10:21:47;;;;;;;;;;;11.30;89.30;;;;;;5011142;28;19931;-67
2022/12/10 10:24:17;;;;;;;;;;;11.30;89.40;;;;;;5010388;28;19925;-67
2022/12/10 10:26:43;;;;;;;;;;;;;;;;;;5027423;28;20000;-67
2022/12/10 10:29:09;;;;;;;;;;;;;;;;;;5035201;28;19925;-66
2022/12/10 10:31:35;;;;;;;;;;;11.50;89.60;;;;;;5035746;28;19925;-67
2022/12/10 10:34:02;;;;;;;;;;;11.70;89.90;;;;;;5052430;28;19974;-67
2022/12/10 10:36:29;;;;;;;;;;;11.70;89.50;;;;;;5051470;28;20447;-65
2022/12/10 10:38:54;;;;;;;;;;;11.80;89.60;;;;;;5035199;28;19979;-66
2022/12/10 10:41:20;;;;;;;;;;;;;;;;;;5032793;28;20004;-66
2022/12/10 10:43:47;;;;;;;;;;;12.00;89.70;;;;;;5027270;28;19925;-65
2022/12/10 10:46:13;;;;;;;;;;;11.70;89.60;;;;;;5034969;28;20379;-64
2022/12/10 10:48:38;;;;;;;;;;;11.70;89.60;;;;;;5033905;28;19932;-65
2022/12/10 10:51:05;;;;;;;;;;;11.70;89.60;;;;;;5012279;28;20330;-65
2022/12/10 10:53:32;;;;;;;;;;;11.60;89.50;;;;;;5032585;28;20283;-64
2022/12/10 10:56:08;;;;;;;;;;;11.80;89.60;;;;;;5014804;28;20295;-65
2022/12/10 10:58:34;;;;;;;;;;;;;;;;;;5034729;28;19933;-64
2022/12/10 11:01:00;;;;;;;;;;;;;;;;;;5029929;28;19925;-67
2022/12/10 11:03:26;;;;;;;;;;;;;;;;;;5033367;28;19933;-64
2022/12/10 11:05:51;;;;;;;;;;;12.20;89.60;;;;;;5034167;28;19925;-65
2022/12/10 11:08:18;;;;;;;;;;;11.80;89.50;;;;;;5033412;28;19927;-65
2022/12/10 11:10:44;;;;;;;;;;;;;;;;;;5034608;28;20008;-65
2022/12/10 11:13:19;;;;;;;;;;;12.10;89.40;;;;;;5031959;28;19932;-67
2022/12/10 11:15:46;;;;;;;;;;;;;;;;;;5033046;28;20478;-66
2022/12/10 11:18:31;;;;;;;;;;;12.10;89.40;;;;;;5033822;28;19932;-65
2022/12/10 11:21:04;;;;;;;;;;;12.20;89.70;;;;;;5032887;28;19975;-65
2022/12/10 11:23:31;;;;;;;;;;;12.10;89.40;;;;;;5030533;28;19925;-65
2022/12/10 11:26:05;;;;;;;;;;;11.80;88.70;;;;;;5034193;28;19971;-65
2022/12/10 11:28:40;;;;;;;;;;;11.90;89.20;;;;;;5030678;28;20002;-64
2022/12/10 11:31:09;;;;;;;;;;;11.80;88.80;;;;;;5016644;28;19929;-65
2022/12/10 11:33:35;;;;;;;;;;;;;;;;;;5032745;28;19978;-65
2022/12/10 11:36:03;;;;;;;;;;;11.90;89.20;;;;;;5032149;28;19925;-65
2022/12/10 11:38:31;;;;;;;;;;;11.80;89.20;;;;;;5033247;28;19927;-65
2022/12/10 11:41:01;;;;;;;;;;;11.80;89.30;;;;;;5016339;28;19935;-64
2022/12/10 11:43:33;;;;;;;;;;;11.50;89.40;;;;;;5033269;28;19925;-65
2022/12/10 11:46:11;;;;;;;;;;;11.60;89.00;;;;;;5032862;28;19921;-68
2022/12/10 11:48:56;;;;;;;;;;;11.70;89.40;;;;;;5032217;28;19964;-65
2022/12/10 11:51:41;;;;;;;;;;;11.50;89.30;;;;;;5031905;28;20018;-64
2022/12/10 11:54:27;;;;;;;;;;;11.60;89.30;;;;;;5026901;28;19936;-68
2022/12/10 11:56:57;;;;;;;;;;;11.60;89.40;;;;;;5031637;28;19971;-63
2022/12/10 11:59:23;;;;;;;;;;;11.80;89.50;;;;;;5031477;28;19952;-65
2022/12/10 12:01:51;;;;;;;;;;;11.80;89.30;;;;;;5032244;28;20378;-65
2022/12/10 12:04:20;;;;;;;;;;;11.70;89.40;;;;;;5030884;28;19929;-66
2022/12/10 12:06:46;;;;;;;;;;;;;;;;;;5032314;28;19933;-66
2022/12/10 12:09:12;;;;;;;;;;;;;;;;;;5053286;28;20346;-65
2022/12/10 12:11:38;;;;;;;;;;;;;;;;;;5054779;28;19925;-64
2022/12/10 12:14:20;;;;;;;;;;;11.70;89.50;;;;;;5027379;28;19951;-67
2022/12/10 12:16:46;;;;;;;;;;;;;;;;;;5032602;28;20394;-66
2022/12/10 12:19:13;;;;;;;;;;;11.60;89.50;;;;;;5028194;28;20444;-65
2022/12/10 12:21:39;;;;;;;;;;;11.60;89.50;;;;;;5029302;28;19932;-65
2022/12/10 12:24:08;;;;;;;;;;;11.60;89.60;;;;;;5030123;28;19929;-65
2022/12/10 12:26:38;;;;;;;;;;;11.80;89.70;;;;;;5026180;28;19928;-65
2022/12/10 12:29:22;;;;;;;;;;;11.70;89.70;;;;;;5028165;28;19948;-65
2022/12/10 12:31:48;;;;;;;;;;;;;;;;;;5034350;28;19925;-64
2022/12/10 12:34:17;;;;;;;;;;;11.50;90.10;;;;;;5033252;28;19925;-63
2022/12/10 12:36:42;;;;;;;;;;;11.70;89.90;;;;;;5061421;28;20306;-64
2022/12/10 12:39:14;;;;;;;;;;;11.50;89.80;;;;;;5054610;28;19971;-65
2022/12/10 12:41:42;;;;;;;;;;;11.60;89.90;;;;;;5016341;28;20311;-65
2022/12/10 12:44:19;;;;;;;;;;;11.50;89.80;;;;;;5032827;28;20012;-64
2022/12/10 12:46:45;;;;;;;;;;;11.70;89.80;;;;;;5049952;28;19968;-65
2022/12/10 12:49:18;;;;;;;;;;;11.40;89.50;;;;;;5049362;28;19948;-65
2022/12/10 12:51:47;;;;;;;;;;;11.50;89.50;;;;;;5048559;28;19925;-64
2022/12/10 12:54:13;;;;;;;;;;;;;;;;;;5031635;28;19975;-65
2022/12/10 12:56:48;;;;;;;;;;;11.70;89.10;;;;;;5013415;28;20283;-64
2022/12/10 12:59:14;;;;;;;;;;;11.40;88.50;;;;;;5018269;28;19987;-64
2022/12/10 13:01:58;;;;;;;;;;;11.20;88.20;;;;;;5056478;28;19925;-64
2022/12/10 13:04:24;;;;;;;;;;;11.10;88.10;;;;;;5013018;28;19932;-67
2022/12/10 13:07:08;;;;;;;;;;;11.10;88.10;;;;;;4998297;28;20012;-64
2022/12/10 13:09:34;;;;;;;;;;;11.10;88.10;;;;;;5012925;28;19925;-67
2022/12/10 13:12:00;;;;;;;;;;;;;;;;;;4996807;28;19932;-64
2022/12/10 13:14:30;;;;;;;;;;;10.90;88.00;;;;;;5013198;28;20347;-65
2022/12/10 13:17:24;;;;;;;;;;;11.10;88.40;;;;;;5016345;28;19925;-64
2022/12/10 13:19:51;;;;;;;;;;;;;;;;;;5005753;28;19971;-67
2022/12/10 13:22:36;;;;;;;;;;;11.20;88.60;;;;;;5030241;28;20008;-65
2022/12/10 13:25:12;;;;;;;;;;;11.00;88.60;;;;;;5058698;28;19932;-64
2022/12/10 13:27:38;;;;;;;;;;;11.10;88.60;;;;;;4996271;28;19933;-67
2022/12/10 13:30:07;;;;;;;;;;;11.20;88.50;;;;;;4991827;28;19925;-67
2022/12/10 13:32:32;;;;;;;;;;;11.20;88.80;;;;;;5065813;28;20305;-65
2022/12/10 13:35:08;;;;;;;;;;;11.20;88.80;;;;;;5046543;28;19925;-67
2022/12/10 13:37:38;;;;;;;;;;;;;;;;;;5020274;28;19931;-67
2022/12/10 13:40:09;;;;;;;;;;;11.20;88.80;;;;;;5047434;28;19925;-67
2022/12/10 13:45:20;;;;;;;;;;;11.30;89.10;;;;;;5018481;28;20509;-67
2022/12/10 13:47:47;;;;;;;;;;;11.30;89.10;;;;;;5058966;28;20019;-67
2022/12/10 13:50:19;;;;;;;;;;;11.30;88.40;;;;;;5061199;28;20060;-67
2022/12/10 13:53:03;;;;;;;;;;;11.20;89.20;;;;;;5015335;28;19933;-64
2022/12/10 13:55:29;;;;;;;;;;;11.00;89.00;;;;;;5032076;28;19925;-71
2022/12/10 13:58:05;;;;;;;;;;;11.50;89.10;;;;;;5065311;28;19935;-64
2022/12/10 14:00:33;;;;;;;;;;;11.30;88.70;;;;;;5029938;28;19926;-64
2022/12/10 14:03:18;;;;;;;;;;;11.00;88.40;;;;;;5013716;28;19925;-64
2022/12/10 14:06:13;;;;;;;;;;;11.40;88.60;;;;;;5068872;28;19925;-64
2022/12/10 14:08:40;;;;;;;;;;;11.30;88.20;;;;;;5035451;28;19925;-64
2022/12/10 14:11:10;;;;;;;;;;;11.40;88.30;;;;;;5018817;28;19925;-64
2022/12/10 14:13:36;;;;;;;;;;;;;;;;;;5019408;28;19929;-65
2022/12/10 14:16:01;;;;;;;;;;;11.10;88.10;;;;;;5035888;28;19925;-64
2022/12/10 14:18:27;;;;;;;;;;;11.00;87.90;;;;;;5019812;28;19932;-64
2022/12/10 14:20:53;;;;;;;;;;;10.90;87.90;;;;;;5019098;28;20495;-65
2022/12/10 14:23:40;;;;;;;;;;;10.70;87.50;;;;;;5035802;28;19948;-64
2022/12/10 14:26:05;;;;;;;;;;;10.60;87.80;;;;;;5021768;28;19929;-64
2022/12/10 14:28:33;;;;;;;;;;;10.60;87.70;;;;;;5067542;28;19928;-64
2022/12/10 14:30:58;;;;;;;;;;;10.40;87.80;;;;;;5017804;28;19933;-64
2022/12/10 14:33:24;;;;;;;;;;;10.60;88.20;;;;;;5037072;28;19925;-65
2022/12/10 14:35:50;;;;;;;;;;;10.70;88.40;;;;;;5019151;28;19925;-65
2022/12/10 14:38:17;;;;;;;;;;;10.80;88.40;;;;;;5014941;28;19925;-67
2022/12/10 14:40:43;;;;;;;;;;;10.80;88.50;;;;;;5034764;28;19929;-67
2022/12/10 14:43:13;;;;;;;;;;;10.70;88.60;;;;;;5058210;28;19925;-67
2022/12/10 14:45:50;;;;;;;;;;;10.60;88.60;;;;;;5052041;28;19925;-65
2022/12/10 14:48:16;;;;;;;;;;;10.80;88.70;;;;;;5034315;28;19932;-65
2022/12/10 14:50:42;;;;;;;;;;;10.70;88.60;;;;;;5067736;28;20322;-65
2022/12/10 14:53:14;;;;;;;;;;;10.80;88.40;;;;;;5032842;28;19925;-67
2022/12/10 14:55:40;;;;;;;;;;;;;;;;;;5034925;28;20291;-66
2022/12/10 14:58:06;;;;;;;;;;;11.00;88.90;;;;;;5031519;28;19932;-68